createdAt,value
2018-01-19T00:00:47.805Z,-0.40
2018-01-19T00:03:16.127Z,-0.40
2018-01-19T00:05:44.415Z,-0.40
2018-01-19T00:08:12.736Z,-0.40
2018-01-19T00:10:41.037Z,-0.40
2018-01-19T00:13:09.359Z,-0.40
2018-01-19T00:15:37.654Z,-0.40
2018-01-19T00:18:05.982Z,-0.30
2018-01-19T00:20:35.116Z,-0.30
2018-01-19T00:23:03.402Z,-0.30
2018-01-19T00:25:31.734Z,-0.30
2018-01-19T00:28:00.055Z,-0.20
2018-01-19T00:30:29.111Z,-0.20
2018-01-19T00:32:57.440Z,-0.10
2018-01-19T00:35:25.736Z,-0.10
2018-01-19T00:37:54.042Z,-0.10
2018-01-19T00:40:22.355Z,-0.10
2018-01-19T00:42:50.666Z,-0.20
2018-01-19T00:45:18.986Z,-0.20
2018-01-19T00:47:47.282Z,-0.20
2018-01-19T00:50:15.589Z,-0.20
2018-01-19T00:52:43.898Z,-0.20
2018-01-19T00:55:12.214Z,-0.20
2018-01-19T00:57:41.266Z,-0.20
2018-01-19T01:00:09.575Z,-0.30
2018-01-19T01:02:38.656Z,-0.30
2018-01-19T01:05:07.007Z,-0.30
2018-01-19T01:07:35.307Z,-0.30
2018-01-19T01:10:03.626Z,-0.30
2018-01-19T01:12:31.912Z,-0.30
2018-01-19T01:15:00.206Z,-0.30
2018-01-19T01:17:28.535Z,-0.30
2018-01-19T01:19:56.830Z,-0.40
2018-01-19T01:22:25.151Z,-0.40
2018-01-19T01:24:53.458Z,-0.50
2018-01-19T01:27:21.769Z,-0.40
2018-01-19T01:29:50.846Z,-0.30
2018-01-19T01:32:19.147Z,-0.30
2018-01-19T01:34:47.475Z,-0.20
2018-01-19T01:37:16.537Z,-0.10
2018-01-19T01:39:44.830Z,-0.10
2018-01-19T01:42:13.130Z,-0.10
2018-01-19T01:44:41.438Z,0.00
2018-01-19T01:47:09.756Z,0.10
2018-01-19T01:49:38.054Z,0.10
2018-01-19T01:52:06.325Z,0.10
2018-01-19T01:54:35.371Z,0.20
2018-01-19T01:57:03.654Z,0.20
2018-01-19T01:59:31.958Z,0.20
2018-01-19T02:02:00.264Z,0.20
2018-01-19T02:04:28.549Z,0.20
2018-01-19T02:06:56.834Z,0.30
2018-01-19T02:09:25.125Z,0.40
2018-01-19T02:11:53.430Z,0.40
2018-01-19T02:14:21.762Z,0.50
2018-01-19T02:16:50.155Z,0.40
2018-01-19T02:19:18.505Z,0.40
2018-01-19T02:21:47.578Z,0.30
2018-01-19T02:24:15.966Z,0.30
2018-01-19T02:26:44.251Z,0.40
2018-01-19T02:29:12.560Z,0.40
2018-01-19T02:31:40.843Z,0.40
2018-01-19T02:34:09.144Z,0.40
2018-01-19T02:36:37.458Z,0.40
2018-01-19T02:39:05.782Z,0.40
2018-01-19T02:41:34.078Z,0.40
2018-01-19T02:44:02.377Z,0.40
2018-01-19T02:46:30.705Z,0.40
2018-01-19T02:48:59.042Z,0.40
2018-01-19T02:51:27.336Z,0.40
2018-01-19T02:53:55.626Z,0.40
2018-01-19T02:56:23.928Z,0.30
2018-01-19T02:58:52.234Z,0.30
2018-01-19T03:01:20.559Z,0.30
2018-01-19T03:03:48.856Z,0.30
2018-01-19T03:06:17.277Z,0.40
2018-01-19T03:08:45.592Z,0.30
2018-01-19T03:11:13.870Z,0.30
2018-01-19T03:13:42.220Z,0.30
2018-01-19T03:16:10.604Z,0.30
2018-01-19T03:18:38.883Z,0.30
2018-01-19T03:21:07.183Z,0.30
2018-01-19T03:23:35.474Z,0.30
2018-01-19T03:26:03.804Z,0.30
2018-01-19T03:28:32.090Z,0.20
2018-01-19T03:31:00.380Z,0.20
2018-01-19T03:33:28.663Z,0.20
2018-01-19T03:35:56.947Z,0.20
2018-01-19T03:38:26.034Z,0.10
2018-01-19T03:40:54.319Z,0.10
2018-01-19T03:43:22.641Z,0.10
2018-01-19T03:45:51.717Z,0.10
2018-01-19T03:48:20.002Z,0.10
2018-01-19T03:50:48.324Z,0.10
2018-01-19T03:53:17.366Z,0.10
2018-01-19T03:55:45.661Z,0.00
2018-01-19T03:58:13.991Z,0.10
2018-01-19T04:00:42.439Z,0.10
2018-01-19T04:03:10.811Z,0.00
2018-01-19T04:05:39.153Z,0.00
2018-01-19T04:08:07.454Z,0.00
2018-01-19T04:10:35.740Z,0.00
2018-01-19T04:13:04.056Z,0.00
2018-01-19T04:15:33.162Z,0.00
2018-01-19T04:18:02.251Z,0.00
2018-01-19T04:20:30.534Z,0.00
2018-01-19T04:22:58.810Z,0.00
2018-01-19T04:25:27.129Z,-0.10
2018-01-19T04:27:55.418Z,-0.10
2018-01-19T04:30:23.710Z,-0.10
2018-01-19T04:32:51.995Z,-0.10
2018-01-19T04:35:20.303Z,-0.10
2018-01-19T04:37:49.409Z,-0.10
2018-01-19T04:40:17.706Z,-0.10
2018-01-19T04:42:46.782Z,-0.10
2018-01-19T04:45:15.094Z,-0.10
2018-01-19T04:47:44.154Z,-0.10
2018-01-19T04:50:12.496Z,-0.10
2018-01-19T04:52:41.861Z,-0.10
2018-01-19T04:55:10.194Z,-0.10
2018-01-19T04:57:39.561Z,-0.20
2018-01-19T05:00:07.877Z,-0.20
2018-01-19T05:02:36.160Z,-0.20
2018-01-19T05:05:04.475Z,-0.20
2018-01-19T05:07:32.795Z,-0.20
2018-01-19T05:10:01.146Z,-0.20
2018-01-19T05:12:29.442Z,-0.20
2018-01-19T05:14:57.743Z,-0.20
2018-01-19T05:17:26.807Z,-0.20
2018-01-19T05:19:55.122Z,-0.20
2018-01-19T05:22:23.430Z,-0.20
2018-01-19T05:24:52.485Z,-0.20
2018-01-19T05:27:20.781Z,-0.20
2018-01-19T05:29:49.087Z,-0.20
2018-01-19T05:32:17.466Z,-0.20
2018-01-19T05:34:45.751Z,-0.20
2018-01-19T05:37:14.061Z,-0.20
2018-01-19T05:39:42.357Z,-0.20
2018-01-19T05:42:10.645Z,-0.30
2018-01-19T05:44:38.956Z,-0.30
2018-01-19T05:47:07.298Z,-0.30
2018-01-19T05:49:35.606Z,-0.20
2018-01-19T05:52:03.901Z,-0.30
2018-01-19T05:54:32.191Z,-0.30
2018-01-19T05:57:00.507Z,-0.20
2018-01-19T05:59:28.801Z,-0.20
2018-01-19T06:01:57.106Z,-0.20
2018-01-19T06:04:25.414Z,-0.30
2018-01-19T06:06:53.703Z,-0.30
2018-01-19T06:09:22.030Z,-0.30
2018-01-19T06:11:50.317Z,-0.20
2018-01-19T06:14:18.604Z,-0.20
2018-01-19T06:16:46.887Z,-0.20
2018-01-19T06:19:15.174Z,-0.20
2018-01-19T06:21:43.490Z,-0.30
2018-01-19T06:24:11.789Z,-0.30
2018-01-19T06:26:40.103Z,-0.30
2018-01-19T06:29:09.153Z,-0.30
2018-01-19T06:31:37.515Z,-0.30
2018-01-19T06:34:05.842Z,-0.30
2018-01-19T06:36:34.147Z,-0.30
2018-01-19T06:39:02.460Z,-0.30
2018-01-19T06:41:31.537Z,-0.30
2018-01-19T06:43:59.817Z,-0.40
2018-01-19T06:46:28.142Z,-0.30
2018-01-19T06:48:57.202Z,-0.30
2018-01-19T06:51:25.502Z,-0.30
2018-01-19T06:53:53.778Z,-0.30
2018-01-19T06:56:22.096Z,-0.30
2018-01-19T06:58:50.403Z,-0.30
2018-01-19T07:01:18.752Z,-0.30
2018-01-19T07:03:47.034Z,-0.30
2018-01-19T07:06:15.407Z,-0.30
2018-01-19T07:08:43.716Z,-0.20
2018-01-19T07:11:12.040Z,-0.20
2018-01-19T07:13:40.323Z,-0.20
2018-01-19T07:16:08.624Z,-0.20
2018-01-19T07:18:36.927Z,-0.30
2018-01-19T07:21:05.276Z,-0.30
2018-01-19T07:23:33.604Z,-0.20
2018-01-19T07:26:01.920Z,-0.20
2018-01-19T07:28:30.981Z,-0.30
2018-01-19T07:30:59.270Z,-0.30
2018-01-19T07:33:27.575Z,-0.10
2018-01-19T07:35:55.894Z,-0.20
2018-01-19T07:38:24.998Z,-0.20
2018-01-19T07:40:54.067Z,-0.20
2018-01-19T07:43:22.351Z,-0.20
2018-01-19T07:45:50.638Z,-0.20
2018-01-19T07:48:18.963Z,-0.20
2018-01-19T07:50:47.258Z,-0.20
2018-01-19T07:53:15.543Z,-0.20
2018-01-19T07:55:43.849Z,-0.20
2018-01-19T07:58:12.125Z,-0.20
2018-01-19T08:00:40.628Z,-0.20
2018-01-19T08:03:09.698Z,-0.20
2018-01-19T08:05:37.999Z,-0.20
2018-01-19T08:08:06.287Z,-0.20
2018-01-19T08:10:34.597Z,-0.10
2018-01-19T08:13:02.943Z,-0.20
2018-01-19T08:15:31.264Z,-0.20
2018-01-19T08:17:59.566Z,-0.10
2018-01-19T08:20:27.868Z,-0.10
2018-01-19T08:22:56.973Z,-0.10
2018-01-19T08:25:25.306Z,-0.20
2018-01-19T08:27:53.607Z,-0.10
2018-01-19T08:30:21.889Z,-0.10
2018-01-19T08:32:50.200Z,-0.10
2018-01-19T08:35:18.504Z,-0.10
2018-01-19T08:37:46.827Z,-0.10
2018-01-19T08:40:15.878Z,-0.20
2018-01-19T08:42:44.175Z,-0.20
2018-01-19T08:45:12.463Z,-0.20
2018-01-19T08:47:40.776Z,-0.20
2018-01-19T08:50:09.185Z,-0.20
2018-01-19T08:52:37.496Z,-0.10
2018-01-19T08:55:06.562Z,0.00
2018-01-19T08:57:34.849Z,0.00
2018-01-19T09:00:03.153Z,0.00
2018-01-19T09:02:31.499Z,0.10
2018-01-19T09:04:59.845Z,0.00
2018-01-19T09:07:28.184Z,0.00
2018-01-19T09:09:56.509Z,0.00
2018-01-19T09:12:24.806Z,0.00
2018-01-19T09:14:53.150Z,0.00
2018-01-19T09:17:21.437Z,0.10
2018-01-19T09:19:49.726Z,0.10
2018-01-19T09:22:18.020Z,0.10
2018-01-19T09:24:46.303Z,0.10
2018-01-19T09:27:14.637Z,0.10
2018-01-19T09:29:42.931Z,0.20
2018-01-19T09:32:11.233Z,0.20
2018-01-19T09:34:39.537Z,0.20
2018-01-19T09:37:07.813Z,0.20
2018-01-19T09:39:36.151Z,0.20
2018-01-19T09:42:04.444Z,0.30
2018-01-19T09:44:32.767Z,0.30
2018-01-19T09:47:01.046Z,0.30
2018-01-19T09:49:29.324Z,0.20
2018-01-19T09:51:57.659Z,0.20
2018-01-19T09:54:25.942Z,0.20
2018-01-19T09:56:54.231Z,0.20
2018-01-19T09:59:22.519Z,0.10
2018-01-19T10:01:50.807Z,0.10
2018-01-19T10:04:19.132Z,0.10
2018-01-19T10:06:47.438Z,0.10
2018-01-19T10:09:15.735Z,0.20
2018-01-19T10:11:44.026Z,0.30
2018-01-19T10:14:12.323Z,0.30
2018-01-19T10:16:40.650Z,0.30
2018-01-19T10:19:08.934Z,0.30
2018-01-19T10:21:37.237Z,0.40
2018-01-19T10:24:05.608Z,0.40
2018-01-19T10:26:33.925Z,0.40
2018-01-19T10:29:03.003Z,0.40
2018-01-19T10:31:31.339Z,0.40
2018-01-19T10:33:59.663Z,0.40
2018-01-19T10:36:27.983Z,0.40
2018-01-19T10:38:56.282Z,0.50
2018-01-19T10:41:24.614Z,0.40
2018-01-19T10:43:53.261Z,0.30
2018-01-19T10:46:21.550Z,0.20
2018-01-19T10:48:49.850Z,0.20
2018-01-19T10:51:18.130Z,0.20
2018-01-19T10:53:46.447Z,0.10
2018-01-19T10:56:15.553Z,0.20
2018-01-19T10:58:44.603Z,0.20
2018-01-19T11:01:12.886Z,0.20
2018-01-19T11:03:41.166Z,0.20
2018-01-19T11:06:09.490Z,0.20
2018-01-19T11:08:37.799Z,0.10
2018-01-19T11:11:06.100Z,0.10
2018-01-19T11:13:34.395Z,0.20
2018-01-19T11:16:02.687Z,0.20
2018-01-19T11:18:31.832Z,0.20
2018-01-19T11:21:00.207Z,0.20
2018-01-19T11:23:28.571Z,0.20
2018-01-19T11:25:56.930Z,0.20
2018-01-19T11:28:25.219Z,0.20
2018-01-19T11:30:53.534Z,0.20
2018-01-19T11:33:21.830Z,0.30
2018-01-19T11:35:50.120Z,0.30
2018-01-19T11:38:18.411Z,0.30
2018-01-19T11:40:46.705Z,0.30
2018-01-19T11:43:15.023Z,0.30
2018-01-19T11:45:43.354Z,0.40
2018-01-19T11:48:11.685Z,0.40
2018-01-19T11:50:39.998Z,0.40
2018-01-19T11:53:08.306Z,0.50
2018-01-19T11:55:36.601Z,0.50
2018-01-19T11:58:04.903Z,0.40
2018-01-19T12:00:33.185Z,0.50
2018-01-19T12:03:01.520Z,0.50
2018-01-19T12:05:29.862Z,0.50
2018-01-19T12:07:58.141Z,0.60
2018-01-19T12:10:26.457Z,0.60
2018-01-19T12:12:54.777Z,0.60
2018-01-19T12:15:23.102Z,0.50
2018-01-19T12:17:51.410Z,0.50
2018-01-19T12:20:19.702Z,0.50
2018-01-19T12:22:48.012Z,0.50
2018-01-19T12:25:16.302Z,0.60
2018-01-19T12:27:44.584Z,0.60
2018-01-19T12:30:12.873Z,0.50
2018-01-19T12:32:41.210Z,0.50
2018-01-19T12:35:10.392Z,0.60
2018-01-19T12:37:38.699Z,0.60
2018-01-19T12:40:07.026Z,0.60
2018-01-19T12:42:35.334Z,0.60
2018-01-19T12:45:03.651Z,0.60
2018-01-19T12:47:32.114Z,0.50
2018-01-19T12:50:00.509Z,0.50
2018-01-19T12:52:28.800Z,0.50
2018-01-19T12:54:57.082Z,0.50
2018-01-19T12:57:25.399Z,0.40
2018-01-19T12:59:54.039Z,0.40
2018-01-19T13:02:23.118Z,0.40
2018-01-19T13:04:51.426Z,0.40
2018-01-19T13:07:19.703Z,0.30
2018-01-19T13:09:48.043Z,0.30
2018-01-19T13:12:16.386Z,0.30
2018-01-19T13:14:44.687Z,0.30
2018-01-19T13:17:12.970Z,0.20
2018-01-19T13:19:41.250Z,0.30
2018-01-19T13:22:09.551Z,0.30
2018-01-19T13:24:43.765Z,0.40
2018-01-19T13:27:12.072Z,0.40
2018-01-19T13:29:40.357Z,0.40
2018-01-19T13:32:08.660Z,0.40
2018-01-19T13:34:37.827Z,0.50
2018-01-19T13:37:06.226Z,0.50
2018-01-19T13:39:34.651Z,0.40
2018-01-19T13:42:02.939Z,0.40
2018-01-19T13:44:31.234Z,0.50
2018-01-19T13:47:00.299Z,0.40
2018-01-19T13:49:28.614Z,0.40
2018-01-19T13:51:56.918Z,0.40
2018-01-19T13:54:25.990Z,0.30
2018-01-19T13:56:54.281Z,0.30
2018-01-19T13:59:22.622Z,0.30
2018-01-19T14:01:51.718Z,0.30
2018-01-19T14:04:20.831Z,0.30
2018-01-19T14:06:49.207Z,0.20
2018-01-19T14:09:17.613Z,0.20
2018-01-19T14:11:46.012Z,0.30
2018-01-19T14:14:15.147Z,0.30
2018-01-19T14:16:43.544Z,0.30
2018-01-19T14:19:11.928Z,0.30
2018-01-19T14:21:40.229Z,0.30
2018-01-19T14:24:08.594Z,0.30
2018-01-19T14:26:37.022Z,0.30
2018-01-19T14:29:05.486Z,0.30
2018-01-19T14:31:33.860Z,0.30
2018-01-19T14:34:02.942Z,0.40
2018-01-19T14:36:31.251Z,0.40
2018-01-19T14:38:59.567Z,0.30
2018-01-19T14:41:27.854Z,0.20
2018-01-19T14:43:56.152Z,0.10
2018-01-19T14:46:24.431Z,0.10
2018-01-19T14:48:53.510Z,0.20
2018-01-19T14:51:21.915Z,0.20
2018-01-19T14:53:50.978Z,0.10
2018-01-19T14:56:19.264Z,0.20
2018-01-19T14:58:47.592Z,0.10
2018-01-19T15:01:15.925Z,0.00
2018-01-19T15:03:44.321Z,0.00
2018-01-19T15:06:13.380Z,-0.10
2018-01-19T15:08:41.666Z,-0.10
2018-01-19T15:11:09.954Z,-0.10
2018-01-19T15:13:38.274Z,-0.10
2018-01-19T15:16:07.371Z,-0.10
2018-01-19T15:18:35.671Z,-0.20
2018-01-19T15:21:04.754Z,-0.20
2018-01-19T15:23:33.079Z,-0.20
2018-01-19T15:26:01.491Z,-0.20
2018-01-19T15:28:29.835Z,-0.20
2018-01-19T15:30:58.147Z,-0.20
2018-01-19T15:33:27.211Z,-0.20
2018-01-19T15:35:55.517Z,-0.20
2018-01-19T15:38:23.795Z,-0.20
2018-01-19T15:40:52.123Z,-0.30
2018-01-19T15:43:21.181Z,-0.30
2018-01-19T15:45:49.538Z,-0.30
2018-01-19T15:48:17.830Z,-0.40
2018-01-19T15:50:46.186Z,-0.40
2018-01-19T15:53:14.523Z,-0.40
2018-01-19T15:55:42.814Z,-0.40
2018-01-19T15:58:11.107Z,-0.40
2018-01-19T16:00:39.412Z,-0.40
2018-01-19T16:03:07.724Z,-0.40
2018-01-19T16:05:36.053Z,-0.40
2018-01-19T16:08:05.139Z,-0.40
2018-01-19T16:10:33.544Z,-0.40
2018-01-19T16:13:02.633Z,-0.40
2018-01-19T16:15:30.935Z,-0.40
2018-01-19T16:18:00.053Z,-0.50
2018-01-19T16:20:29.162Z,-0.50
2018-01-19T16:22:58.308Z,-0.50
2018-01-19T16:25:26.693Z,-0.50
2018-01-19T16:27:55.083Z,-0.60
2018-01-19T16:30:23.480Z,-0.70
2018-01-19T16:32:51.853Z,-0.70
2018-01-19T16:35:20.212Z,-0.70
2018-01-19T16:37:48.546Z,-0.70
2018-01-19T16:40:17.004Z,-0.70
2018-01-19T16:42:45.393Z,-0.70
2018-01-19T16:45:13.774Z,-0.70
2018-01-19T16:47:42.871Z,-0.80
2018-01-19T16:50:11.287Z,-0.80
2018-01-19T16:52:39.628Z,-0.80
2018-01-19T16:55:07.963Z,-0.90
2018-01-19T16:57:36.255Z,-1.00
2018-01-19T17:00:05.347Z,-1.10
2018-01-19T17:02:33.738Z,-1.10
2018-01-19T17:05:02.090Z,-1.10
2018-01-19T17:07:30.386Z,-1.10
2018-01-19T17:09:59.487Z,-1.10
2018-01-19T17:12:27.829Z,-1.10
2018-01-19T17:14:56.142Z,-1.00
2018-01-19T17:17:25.211Z,-1.00
2018-01-19T17:19:53.738Z,-1.00
2018-01-19T17:22:22.819Z,-1.10
2018-01-19T17:24:51.106Z,-1.10
2018-01-19T17:27:19.440Z,-1.20
2018-01-19T17:29:48.499Z,-1.20
2018-01-19T17:32:16.948Z,-1.20
2018-01-19T17:34:45.209Z,-1.30
2018-01-19T17:37:13.531Z,-1.30
2018-01-19T17:39:41.867Z,-1.20
2018-01-19T17:42:10.157Z,-1.20
2018-01-19T17:44:38.494Z,-1.20
2018-01-19T17:47:07.574Z,-1.00
2018-01-19T17:49:35.908Z,-1.00
2018-01-19T17:52:04.264Z,-0.90
2018-01-19T17:54:32.662Z,-0.90
2018-01-19T17:57:01.876Z,-0.90
2018-01-19T17:59:30.978Z,-1.00
2018-01-19T18:02:00.085Z,-1.00
2018-01-19T18:04:29.169Z,-0.90
2018-01-19T18:06:57.456Z,-1.00
2018-01-19T18:09:25.778Z,-1.00
2018-01-19T18:11:54.834Z,-1.10
2018-01-19T18:14:23.157Z,-1.10
2018-01-19T18:16:51.467Z,-1.10
2018-01-19T18:19:20.518Z,-1.20
2018-01-19T18:21:48.854Z,-1.20
2018-01-19T18:24:17.150Z,-1.20
2018-01-19T18:26:45.447Z,-1.20
2018-01-19T18:29:14.560Z,-1.20
2018-01-19T18:31:43.635Z,-1.20
2018-01-19T18:34:11.999Z,-1.20
2018-01-19T18:36:40.316Z,-1.20
2018-01-19T18:39:08.771Z,-1.10
2018-01-19T18:41:37.078Z,-1.10
2018-01-19T18:44:05.410Z,-1.10
2018-01-19T18:46:33.755Z,-1.10
2018-01-19T18:49:02.116Z,-1.10
2018-01-19T18:51:30.418Z,-1.00
2018-01-19T18:53:58.707Z,-1.10
2018-01-19T18:56:27.004Z,-1.10
2018-01-19T18:58:55.366Z,-1.10
2018-01-19T19:01:24.423Z,-1.10
2018-01-19T19:03:52.738Z,-1.10
2018-01-19T19:06:21.039Z,-1.10
2018-01-19T19:08:49.342Z,-1.00
2018-01-19T19:11:18.435Z,-1.00
2018-01-19T19:13:46.773Z,-1.00
2018-01-19T19:16:16.209Z,-0.90
2018-01-19T19:18:44.541Z,-1.00
2018-01-19T19:21:12.856Z,-0.90
2018-01-19T19:23:41.949Z,-0.90
2018-01-19T19:26:10.252Z,-0.90
2018-01-19T19:28:39.317Z,-0.90
2018-01-19T19:31:07.626Z,-0.90
2018-01-19T19:33:35.954Z,-0.90
2018-01-19T19:36:04.356Z,-0.90
2018-01-19T19:38:32.734Z,-0.90
2018-01-19T19:41:01.125Z,-0.80
2018-01-19T19:43:29.459Z,-0.80
2018-01-19T19:45:57.742Z,-0.90
2018-01-19T19:48:26.112Z,-0.90
2018-01-19T19:50:54.421Z,-0.80
2018-01-19T19:53:22.720Z,-0.70
2018-01-19T19:55:51.078Z,-0.70
2018-01-19T19:58:19.453Z,-0.70
2018-01-19T20:00:48.680Z,-0.70
2018-01-19T20:03:17.026Z,-0.70
2018-01-19T20:05:45.327Z,-0.60
2018-01-19T20:08:14.414Z,-0.70
2018-01-19T20:10:42.793Z,-0.70
2018-01-19T20:13:11.119Z,-0.70
2018-01-19T20:15:40.351Z,-0.80
2018-01-19T20:18:09.561Z,-0.80
2018-01-19T20:20:37.879Z,-0.80
2018-01-19T20:23:06.203Z,-0.70
2018-01-19T20:25:34.598Z,-0.70
2018-01-19T20:28:02.906Z,-0.70
2018-01-19T20:30:31.262Z,-0.70
2018-01-19T20:33:00.647Z,-0.60
2018-01-19T20:35:29.003Z,-0.60
2018-01-19T20:37:58.102Z,-0.50
2018-01-19T20:40:26.444Z,-0.60
2018-01-19T20:42:54.787Z,-0.50
2018-01-19T20:45:23.083Z,-0.50
2018-01-19T20:47:52.188Z,-0.50
2018-01-19T20:50:20.496Z,-0.50
2018-01-19T20:52:49.621Z,-0.40
2018-01-19T20:55:17.965Z,-0.50
2018-01-19T20:57:46.289Z,-0.40
2018-01-19T21:00:14.687Z,-0.40
2018-01-19T21:02:43.086Z,-0.40
2018-01-19T21:05:11.435Z,-0.30
2018-01-19T21:07:39.815Z,-0.40
2018-01-19T21:10:08.164Z,-0.40
2018-01-19T21:12:36.502Z,-0.40
2018-01-19T21:15:04.891Z,-0.40
2018-01-19T21:17:34.070Z,-0.40
2018-01-19T21:20:02.381Z,-0.40
2018-01-19T21:22:30.716Z,-0.40
2018-01-19T21:24:59.782Z,-0.30
2018-01-19T21:27:28.071Z,-0.40
2018-01-19T21:29:56.405Z,-0.30
2018-01-19T21:32:25.469Z,-0.30
2018-01-19T21:34:53.778Z,-0.30
2018-01-19T21:37:22.077Z,-0.40
2018-01-19T21:39:50.386Z,-0.40
2018-01-19T21:42:19.470Z,-0.50
2018-01-19T21:44:47.771Z,-0.50
2018-01-19T21:47:16.066Z,-0.50
2018-01-19T21:49:45.154Z,-0.50
2018-01-19T21:52:13.470Z,-0.50
2018-01-19T21:54:42.566Z,-0.60
2018-01-19T21:57:11.232Z,-0.60
2018-01-19T21:59:39.717Z,-0.70
2018-01-19T22:02:08.054Z,-0.80
2018-01-19T22:04:36.354Z,-0.80
2018-01-19T22:07:05.597Z,-0.90
2018-01-19T22:09:33.923Z,-0.90
2018-01-19T22:12:02.262Z,-0.90
2018-01-19T22:14:30.560Z,-0.90
2018-01-19T22:16:58.850Z,-0.90
2018-01-19T22:19:27.180Z,-0.90
2018-01-19T22:21:55.510Z,-0.90
2018-01-19T22:24:24.565Z,-0.70
2018-01-19T22:26:52.879Z,-0.80
2018-01-19T22:29:21.175Z,-0.70
2018-01-19T22:31:49.515Z,-0.70
2018-01-19T22:34:17.811Z,-0.80
2018-01-19T22:36:46.159Z,-0.80
2018-01-19T22:39:15.295Z,-0.80
2018-01-19T22:41:43.582Z,-0.90
2018-01-19T22:44:11.902Z,-0.80
2018-01-19T22:46:40.206Z,-0.80
2018-01-19T22:49:08.558Z,-0.80
2018-01-19T22:51:36.874Z,-0.80
2018-01-19T22:54:05.288Z,-0.80
2018-01-19T22:56:33.602Z,-0.70
2018-01-19T22:59:01.934Z,-0.70
2018-01-19T23:01:30.274Z,-0.70
2018-01-19T23:03:58.580Z,-0.70
2018-01-19T23:06:27.678Z,-0.70
2018-01-19T23:08:56.747Z,-0.70
2018-01-19T23:11:25.043Z,-0.70
2018-01-19T23:13:53.347Z,-0.70
2018-01-19T23:16:21.631Z,-0.70
2018-01-19T23:18:49.974Z,-0.70
2018-01-19T23:21:18.282Z,-0.70
2018-01-19T23:23:46.579Z,-0.80
2018-01-19T23:26:14.874Z,-0.70
2018-01-19T23:28:43.190Z,-0.80
2018-01-19T23:31:11.630Z,-0.80
2018-01-19T23:33:39.914Z,-0.80
2018-01-19T23:36:08.251Z,-0.80
2018-01-19T23:38:36.540Z,-0.80
2018-01-19T23:41:04.879Z,-0.80
2018-01-19T23:43:34.275Z,-0.80
2018-01-19T23:46:02.604Z,-0.80
2018-01-19T23:48:30.921Z,-0.90
2018-01-19T23:50:59.238Z,-0.80
2018-01-19T23:53:27.542Z,-0.80
2018-01-19T23:55:56.641Z,-0.90
2018-01-19T23:58:24.950Z,-0.90
